Time;durP1;ratioP1;P1;durP2;ratioP2;P2;SDS_P1;SDS_P2;PMS_P1;PMS_P2;Temp;Humidity;BMP_temperature;BMP_pressure;BME280_temperature;BME280_humidity;BME280_pressure;Samples;Min_cycle;Max_cycle;Signal;HPM_P1;HPM_P2
2021/09/03 00:00:05;;;;;;;17.05;7.68;;;;;18.70;100360.00;;;;5069013;28;20043;-77
2021/09/03 00:02:32;;;;;;;17.20;7.70;;;;;18.80;100350.00;;;;5067863;28;20024;-77
2021/09/03 00:04:58;;;;;;;16.67;7.22;;;;;18.70;100363.00;;;;5068794;28;20028;-77
2021/09/03 00:07:25;;;;;;;20.88;7.50;;;;;18.70;100338.00;;;;5067209;28;20415;-77
2021/09/03 00:09:51;;;;;;;20.30;8.70;;;;;18.70;100361.00;;;;5068772;28;20035;-77
2021/09/03 00:12:18;;;;;;;24.00;9.10;;;;;18.70;100372.00;;;;5068930;28;20078;-76
2021/09/03 00:14:44;;;;;;;29.50;8.15;;;;;18.70;100338.00;;;;5069345;28;20082;-76
2021/09/03 00:17:11;;;;;;;33.63;8.95;;;;;18.80;100357.00;;;;5068617;28;20029;-77
2021/09/03 00:19:38;;;;;;;27.23;8.95;;;;;18.70;100352.00;;;;5068670;28;20033;-77
2021/09/03 00:22:04;;;;;;;22.95;8.63;;;;;18.60;100357.00;;;;5068312;28;20742;-77
2021/09/03 00:24:31;;;;;;;20.23;8.05;;;;;18.50;100374.00;;;;5068531;28;21045;-77
2021/09/03 00:26:57;;;;;;;17.40;7.80;;;;;18.50;100360.00;;;;5060424;28;20472;-77
2021/09/03 00:29:24;;;;;;;20.58;8.32;;;;;18.50;100367.00;;;;5055652;28;20021;-77
2021/09/03 00:31:51;;;;;;;14.95;7.30;;;;;18.40;100355.00;;;;5057664;28;20033;-77
2021/09/03 00:34:17;;;;;;;20.90;7.97;;;;;18.40;100357.00;;;;5048465;28;20078;-76
2021/09/03 00:36:46;;;;;;;19.88;8.35;;;;;18.50;100361.00;;;;5048202;28;20033;-77
2021/09/03 00:39:12;;;;;;;22.15;9.05;;;;;18.50;100365.00;;;;5048680;28;20503;-77
2021/09/03 00:41:39;;;;;;;32.75;10.68;;;;;18.70;100400.00;;;;5048079;28;20040;-76
2021/09/03 00:44:07;;;;;;;29.88;10.35;;;;;18.90;100401.00;;;;5047858;28;20036;-79
2021/09/03 00:46:33;;;;;;;30.25;11.88;;;;;19.10;100418.00;;;;5048131;28;20033;-77
2021/09/03 00:49:00;;;;;;;44.72;15.00;;;;;19.50;100467.00;;;;5048917;28;20054;-77
2021/09/03 00:51:27;;;;;;;32.05;11.50;;;;;19.80;100445.00;;;;5047556;28;20519;-76
2021/09/03 00:53:54;;;;;;;47.88;20.90;;;;;20.00;100464.00;;;;5047690;28;20045;-78
2021/09/03 00:56:20;;;;;;;47.40;20.17;;;;;20.20;100478.00;;;;5048141;28;20396;-78
2021/09/03 00:58:47;;;;;;;40.92;20.05;;;;;20.20;100485.00;;;;5047749;28;20477;-78
2021/09/03 01:01:17;;;;;;;56.40;22.70;;;;;20.10;100486.00;;;;5048440;28;20071;-78
2021/09/03 01:03:44;;;;;;;36.33;20.67;;;;;20.10;100506.00;;;;5047462;28;20401;-78
2021/09/03 01:06:10;;;;;;;50.72;20.75;;;;;20.10;100493.00;;;;5047932;28;20072;-78
2021/09/03 01:08:37;;;;;;;42.50;19.70;;;;;20.20;100484.00;;;;5047509;28;20571;-77
2021/09/03 01:11:03;;;;;;;48.50;21.08;;;;;20.20;100486.00;;;;5047646;28;20025;-78
2021/09/03 01:13:30;;;;;;;42.17;19.23;;;;;20.30;100471.00;;;;5047505;28;20024;-79
2021/09/03 01:15:57;;;;;;;40.92;19.13;;;;;20.20;100485.00;;;;5048042;28;20024;-78
2021/09/03 01:18:23;;;;;;;35.55;18.10;;;;;20.10;100477.00;;;;5049141;28;20148;-78
2021/09/03 01:20:50;;;;;;;32.20;17.20;;;;;20.10;100474.00;;;;5047580;28;20032;-77
2021/09/03 01:23:17;;;;;;;36.13;17.90;;;;;20.00;100457.00;;;;5048893;28;20078;-78
2021/09/03 01:25:43;;;;;;;31.67;17.63;;;;;19.90;100455.00;;;;5049443;28;20029;-78
2021/09/03 01:28:10;;;;;;;38.08;16.30;;;;;19.90;100448.00;;;;5048169;28;20033;-78
2021/09/03 01:30:37;;;;;;;31.27;17.23;;;;;19.70;100451.00;;;;5049122;28;20606;-79
2021/09/03 01:33:04;;;;;;;28.95;16.20;;;;;19.70;100459.00;;;;5048508;28;20040;-78
2021/09/03 01:35:30;;;;;;;31.67;16.83;;;;;19.60;100443.00;;;;5049041;28;20035;-78
2021/09/03 01:37:57;;;;;;;45.00;15.75;;;;;19.60;100420.00;;;;5049699;28;20028;-79
2021/09/03 01:40:24;;;;;;;36.45;16.10;;;;;19.60;100431.00;;;;5048061;28;20035;-78
2021/09/03 01:42:50;;;;;;;34.22;16.45;;;;;19.60;100397.00;;;;5046162;28;20040;-78
2021/09/03 01:45:17;;;;;;;54.20;20.77;;;;;19.50;100412.00;;;;5048006;28;20143;-78
2021/09/03 01:47:43;;;;;;;34.13;18.42;;;;;19.40;100428.00;;;;5047036;28;20369;-78
2021/09/03 01:50:10;;;;;;;40.20;18.85;;;;;19.30;100424.00;;;;5047849;28;20029;-79
2021/09/03 01:52:37;;;;;;;40.03;19.38;;;;;19.30;100450.00;;;;5047232;28;20051;-78
2021/09/03 01:55:04;;;;;;;37.17;20.83;;;;;19.40;100435.00;;;;5046840;28;20095;-79
2021/09/03 01:57:31;;;;;;;33.92;18.63;;;;;19.30;100438.00;;;;5047391;28;20033;-78
2021/09/03 01:59:57;;;;;;;30.23;17.92;;;;;19.30;100433.00;;;;5047487;28;20115;-78
2021/09/03 02:02:24;;;;;;;45.20;18.45;;;;;19.20;100424.00;;;;5047359;28;20032;-78
2021/09/03 02:04:50;;;;;;;45.95;20.30;;;;;19.20;100420.00;;;;5047864;28;20027;-78
2021/09/03 02:07:17;;;;;;;45.17;18.70;;;;;19.20;100436.00;;;;5047596;28;20037;-78
2021/09/03 02:09:43;;;;;;;39.75;19.10;;;;;19.20;100419.00;;;;5048910;28;20029;-78
2021/09/03 02:12:12;;;;;;;40.25;19.23;;;;;19.20;100395.00;;;;5047234;28;20104;-78
2021/09/03 02:14:43;;;;;;;34.05;20.27;;;;;19.20;100432.00;;;;5045647;28;20040;-78
2021/09/03 02:17:10;;;;;;;38.65;19.02;;;;;19.20;100440.00;;;;5047945;28;20043;-78
2021/09/03 02:19:37;;;;;;;40.17;18.73;;;;;19.20;100423.00;;;;5048724;28;20046;-78
2021/09/03 02:22:04;;;;;;;50.55;19.75;;;;;19.20;100415.00;;;;5046528;28;20595;-78
2021/09/03 02:24:30;;;;;;;31.13;19.60;;;;;19.10;100421.00;;;;5045868;28;20029;-78
2021/09/03 02:26:57;;;;;;;40.17;20.73;;;;;19.20;100436.00;;;;5051070;28;20048;-79
2021/09/03 02:29:24;;;;;;;37.45;19.00;;;;;19.20;100427.00;;;;5050725;28;20389;-79
2021/09/03 02:31:51;;;;;;;38.92;18.75;;;;;19.30;100433.00;;;;5051394;28;20107;-79
2021/09/03 02:34:17;;;;;;;35.70;17.55;;;;;19.30;100434.00;;;;5051461;28;20059;-79
2021/09/03 02:36:45;;;;;;;51.90;19.85;;;;;19.30;100413.00;;;;5050643;28;20098;-79
2021/09/03 02:39:12;;;;;;;49.88;19.20;;;;;19.20;100415.00;;;;5049234;28;20033;-79
2021/09/03 02:41:38;;;;;;;39.70;19.88;;;;;19.20;100409.00;;;;5049889;28;20492;-80
2021/09/03 02:44:05;;;;;;;39.45;18.58;;;;;19.20;100386.00;;;;5050429;28;20025;-79
2021/09/03 02:46:31;;;;;;;43.28;20.48;;;;;19.20;100378.00;;;;5052020;28;20496;-80
2021/09/03 02:48:58;;;;;;;33.72;18.67;;;;;19.10;100396.00;;;;5051544;28;20171;-79
2021/09/03 02:51:25;;;;;;;35.05;18.27;;;;;19.10;100382.00;;;;5050940;28;20538;-78
2021/09/03 02:53:51;;;;;;;33.10;18.33;;;;;19.10;100365.00;;;;5052437;28;20416;-79
2021/09/03 02:56:18;;;;;;;42.92;17.98;;;;;19.20;100358.00;;;;5051710;28;20028;-77
2021/09/03 02:58:44;;;;;;;31.17;16.67;;;;;19.20;100357.00;;;;5052230;28;20484;-80
2021/09/03 03:01:11;;;;;;;35.30;19.35;;;;;19.20;100371.00;;;;5052170;28;20492;-80
2021/09/03 03:03:37;;;;;;;38.50;19.27;;;;;19.30;100360.00;;;;5051387;28;20546;-79
2021/09/03 03:06:04;;;;;;;33.25;17.83;;;;;19.30;100353.00;;;;5050960;28;20029;-80
2021/09/03 03:08:30;;;;;;;37.55;18.40;;;;;19.30;100372.00;;;;5050183;28;20017;-80
2021/09/03 03:10:58;;;;;;;35.15;18.48;;;;;19.30;100349.00;;;;5049841;28;20116;-79
2021/09/03 03:13:27;;;;;;;27.27;16.83;;;;;19.30;100354.00;;;;5050403;28;20028;-79
2021/09/03 03:15:54;;;;;;;32.03;16.80;;;;;19.20;100335.00;;;;5050464;28;20071;-79
2021/09/03 03:18:21;;;;;;;35.67;18.48;;;;;19.20;100359.00;;;;5051671;28;20028;-79
2021/09/03 03:20:50;;;;;;;33.67;19.63;;;;;19.10;100340.00;;;;5049908;28;20499;-79
2021/09/03 03:23:17;;;;;;;39.85;19.98;;;;;19.10;100334.00;;;;5048399;28;20079;-80
2021/09/03 03:25:44;;;;;;;39.83;18.85;;;;;19.00;100313.00;;;;5050233;28;20036;-80
2021/09/03 03:28:11;;;;;;;43.80;18.10;;;;;19.00;100325.00;;;;5050760;28;20063;-79
2021/09/03 03:30:38;;;;;;;37.50;16.35;;;;;19.00;100322.00;;;;5049992;28;20025;-79
2021/09/03 03:33:05;;;;;;;34.67;17.10;;;;;18.90;100333.00;;;;5050084;28;20032;-80
2021/09/03 03:35:31;;;;;;;33.33;18.00;;;;;18.80;100346.00;;;;5050713;28;20032;-79
2021/09/03 03:37:58;;;;;;;23.98;16.77;;;;;18.70;100335.00;;;;5051091;28;20029;-79
2021/09/03 03:40:25;;;;;;;37.92;17.00;;;;;18.60;100320.00;;;;5053603;28;20025;-78
2021/09/03 03:42:51;;;;;;;32.40;16.40;;;;;18.50;100308.00;;;;5054247;28;20025;-80
2021/09/03 03:45:18;;;;;;;32.67;16.05;;;;;18.50;100314.00;;;;5053474;28;20059;-79
2021/09/03 03:47:44;;;;;;;38.67;17.25;;;;;18.40;100307.00;;;;5050137;28;20078;-78
2021/09/03 03:50:12;;;;;;;28.67;16.23;;;;;18.40;100276.00;;;;5051526;28;20492;-81
2021/09/03 03:52:40;;;;;;;32.72;16.58;;;;;18.30;100319.00;;;;5051046;28;20029;-79
2021/09/03 03:55:07;;;;;;;37.47;16.63;;;;;18.30;100316.00;;;;5050515;28;20087;-79
2021/09/03 03:57:33;;;;;;;24.42;15.18;;;;;18.30;100305.00;;;;5050516;28;20036;-79
2021/09/03 04:00:00;;;;;;;33.42;15.95;;;;;18.20;100299.00;;;;5052099;28;20458;-80
2021/09/03 04:02:26;;;;;;;30.75;14.95;;;;;18.20;100305.00;;;;5050873;28;20044;-80
2021/09/03 04:04:53;;;;;;;26.67;14.38;;;;;18.10;100294.00;;;;5053419;28;20112;-78
2021/09/03 04:07:19;;;;;;;24.92;13.90;;;;;18.10;100294.00;;;;5052534;28;20090;-79
2021/09/03 04:09:46;;;;;;;26.20;14.43;;;;;18.10;100292.00;;;;5052407;28;20071;-80
2021/09/03 04:12:13;;;;;;;29.85;13.18;;;;;18.10;100290.00;;;;5051110;28;20054;-78
2021/09/03 04:14:40;;;;;;;25.95;13.60;;;;;18.10;100287.00;;;;5051868;28;20029;-80
2021/09/03 04:17:07;;;;;;;31.85;13.80;;;;;18.10;100306.00;;;;5050112;28;20028;-80
2021/09/03 04:19:34;;;;;;;21.45;13.10;;;;;18.10;100295.00;;;;5051017;28;20024;-79
2021/09/03 04:22:01;;;;;;;28.17;13.32;;;;;18.10;100273.00;;;;5050873;28;20392;-79
2021/09/03 04:24:27;;;;;;;21.33;12.68;;;;;18.10;100304.00;;;;5051247;28;20504;-79
2021/09/03 04:26:54;;;;;;;22.33;12.25;;;;;18.20;100272.00;;;;5049861;28;20484;-79
2021/09/03 04:29:20;;;;;;;25.40;12.13;;;;;18.20;100280.00;;;;5051070;28;20377;-78
2021/09/03 04:31:47;;;;;;;20.20;12.43;;;;;18.20;100300.00;;;;5048209;28;20029;-78
2021/09/03 04:34:13;;;;;;;23.80;12.45;;;;;18.20;100283.00;;;;5050687;28;20031;-79
2021/09/03 04:36:40;;;;;;;23.33;11.40;;;;;18.30;100276.00;;;;5050300;28;20037;-78
2021/09/03 04:39:06;;;;;;;18.60;12.18;;;;;18.40;100300.00;;;;5052495;28;20488;-80
2021/09/03 04:41:33;;;;;;;32.67;12.70;;;;;18.40;100281.00;;;;5052807;28;20408;-79
2021/09/03 04:43:59;;;;;;;19.88;11.55;;;;;18.30;100261.00;;;;5052133;28;20041;-80
2021/09/03 04:46:26;;;;;;;19.35;10.27;;;;;18.30;100269.00;;;;5050863;28;20021;-80
2021/09/03 04:48:52;;;;;;;19.92;10.50;;;;;18.30;100266.00;;;;5049715;28;20029;-80
2021/09/03 04:51:19;;;;;;;24.38;9.77;;;;;18.30;100281.00;;;;5050911;28;20500;-79
2021/09/03 04:53:46;;;;;;;13.98;9.98;;;;;18.40;100277.00;;;;5048865;28;20493;-80
2021/09/03 04:56:12;;;;;;;21.13;11.35;;;;;18.30;100269.00;;;;5047835;28;20033;-79
2021/09/03 04:58:39;;;;;;;20.65;10.27;;;;;18.20;100282.00;;;;5048559;28;20044;-79
2021/09/03 05:01:05;;;;;;;20.70;9.90;;;;;18.20;100275.00;;;;5048238;28;20060;-79
2021/09/03 05:03:32;;;;;;;17.05;9.48;;;;;18.10;100292.00;;;;5049298;28;20602;-78
2021/09/03 05:05:58;;;;;;;27.20;12.35;;;;;18.30;100276.00;;;;5048518;28;20032;-79
2021/09/03 05:08:25;;;;;;;24.08;11.52;;;;;18.80;100277.00;;;;5046524;28;20037;-79
2021/09/03 05:10:51;;;;;;;20.70;11.32;;;;;18.90;100245.00;;;;5048720;28;20032;-79
2021/09/03 05:13:18;;;;;;;20.42;10.32;;;;;18.90;100257.00;;;;5048492;28;20508;-80
2021/09/03 05:15:45;;;;;;;28.75;11.02;;;;;18.70;100275.00;;;;5047158;28;20029;-79
2021/09/03 05:18:12;;;;;;;23.63;10.73;;;;;18.50;100288.00;;;;5050640;28;20040;-79
2021/09/03 05:20:38;;;;;;;21.42;10.07;;;;;18.20;100269.00;;;;5047775;28;20036;-78
2021/09/03 05:23:05;;;;;;;19.13;10.43;;;;;18.00;100276.00;;;;5046280;28;20036;-80
2021/09/03 05:25:31;;;;;;;20.15;9.73;;;;;17.90;100271.00;;;;5048139;28;20033;-79
2021/09/03 05:27:58;;;;;;;29.77;10.30;;;;;17.80;100268.00;;;;5049765;28;20029;-79
2021/09/03 05:30:24;;;;;;;25.00;9.98;;;;;17.80;100252.00;;;;5047607;28;20029;-79
2021/09/03 05:32:52;;;;;;;14.65;10.18;;;;;17.80;100266.00;;;;5048279;28;20484;-79
2021/09/03 05:35:20;;;;;;;15.32;10.40;;;;;17.70;100277.00;;;;5049269;28;20032;-78
2021/09/03 05:37:46;;;;;;;18.52;10.30;;;;;17.70;100262.00;;;;5047511;28;20060;-80
2021/09/03 05:40:14;;;;;;;20.25;10.68;;;;;17.60;100286.00;;;;5047725;28;20037;-79
2021/09/03 05:42:40;;;;;;;17.60;11.32;;;;;17.60;100278.00;;;;5048833;28;20550;-80
2021/09/03 05:45:08;;;;;;;19.60;10.88;;;;;18.00;100298.00;;;;5047084;28;20071;-79
2021/09/03 05:47:34;;;;;;;23.67;12.02;;;;;18.20;100270.00;;;;5048536;28;20055;-78
2021/09/03 05:50:01;;;;;;;21.40;12.98;;;;;18.50;100271.00;;;;5046324;28;20032;-78
2021/09/03 05:52:27;;;;;;;23.98;13.23;;;;;18.50;100272.00;;;;5048433;28;20492;-77
2021/09/03 05:54:54;;;;;;;27.88;14.02;;;;;18.60;100292.00;;;;5045748;28;20045;-78
2021/09/03 05:57:20;;;;;;;25.65;13.35;;;;;18.90;100281.00;;;;5047449;28;20579;-78
2021/09/03 05:59:49;;;;;;;26.35;13.70;;;;;18.90;100276.00;;;;5047323;28;20508;-78
2021/09/03 06:02:16;;;;;;;23.77;13.27;;;;;18.80;100283.00;;;;5049683;28;20094;-78
2021/09/03 06:04:42;;;;;;;27.20;12.57;;;;;18.80;100305.00;;;;5047504;28;20033;-78
2021/09/03 06:07:09;;;;;;;21.63;12.73;;;;;18.70;100297.00;;;;5048775;28;20491;-79
2021/09/03 06:09:36;;;;;;;25.55;12.90;;;;;18.60;100292.00;;;;5048510;28;20113;-79
2021/09/03 06:12:02;;;;;;;24.45;12.57;;;;;18.50;100320.00;;;;5047045;28;20025;-80
2021/09/03 06:14:29;;;;;;;22.38;13.23;;;;;18.40;100314.00;;;;5046243;28;20036;-79
2021/09/03 06:16:55;;;;;;;27.55;12.85;;;;;18.30;100316.00;;;;5047189;28;20507;-79
2021/09/03 06:19:22;;;;;;;25.10;14.52;;;;;18.40;100309.00;;;;5047181;28;20033;-80
2021/09/03 06:21:49;;;;;;;32.35;14.85;;;;;18.40;100295.00;;;;5047173;28;20403;-79
2021/09/03 06:24:28;;;;;;;31.05;15.95;;;;;18.40;100289.00;;;;5046611;28;20112;-79
2021/09/03 06:27:06;;;;;;;39.47;15.07;;;;;18.40;100313.00;;;;5046545;28;20651;-79
2021/09/03 06:29:43;;;;;;;33.50;15.55;;;;;18.30;100318.00;;;;5046991;28;20040;-80
2021/09/03 06:32:18;;;;;;;40.10;16.98;;;;;18.30;100305.00;;;;5046533;28;20493;-79
2021/09/03 06:34:49;;;;;;;33.38;15.35;;;;;18.20;100293.00;;;;5046949;28;20025;-80
2021/09/03 06:37:17;;;;;;;32.30;16.00;;;;;18.00;100288.00;;;;5046968;28;20036;-79
2021/09/03 06:39:45;;;;;;;23.35;15.57;;;;;18.00;100306.00;;;;5046909;28;20391;-79
2021/09/03 06:42:13;;;;;;;25.05;15.65;;;;;17.90;100293.00;;;;5047584;28;20040;-78
2021/09/03 06:44:40;;;;;;;39.05;15.82;;;;;17.80;100306.00;;;;5046708;28;20036;-79
2021/09/03 06:47:08;;;;;;;26.83;15.48;;;;;17.70;100287.00;;;;5046241;28;20048;-80
2021/09/03 06:49:36;;;;;;;28.15;16.15;;;;;17.60;100312.00;;;;5046495;28;20500;-80
2021/09/03 06:52:04;;;;;;;32.17;16.55;;;;;17.50;100286.00;;;;5045214;28;20039;-80
2021/09/03 06:54:31;;;;;;;34.95;16.13;;;;;17.50;100300.00;;;;5046262;28;20416;-80
2021/09/03 06:57:01;;;;;;;32.05;15.57;;;;;17.40;100302.00;;;;5046755;28;20044;-79
2021/09/03 06:59:28;;;;;;;32.63;15.80;;;;;17.40;100282.00;;;;5046819;28;20108;-79
2021/09/03 07:01:55;;;;;;;42.28;16.92;;;;;17.40;100293.00;;;;5046269;28;20496;-79
2021/09/03 07:04:22;;;;;;;41.55;15.90;;;;;17.40;100277.00;;;;5046973;28;20021;-79
2021/09/03 07:06:50;;;;;;;29.88;14.93;;;;;17.30;100279.00;;;;5046589;28;20057;-80
2021/09/03 07:09:17;;;;;;;29.05;15.38;;;;;17.30;100287.00;;;;5045049;28;20029;-79
2021/09/03 07:11:44;;;;;;;28.48;16.63;;;;;17.30;100303.00;;;;5047269;28;20060;-80
2021/09/03 07:14:10;;;;;;;30.55;16.40;;;;;17.30;100282.00;;;;5050063;28;20029;-80
2021/09/03 07:16:37;;;;;;;31.17;17.30;;;;;17.40;100289.00;;;;5049791;28;20506;-80
2021/09/03 07:19:03;;;;;;;31.77;17.23;;;;;17.40;100278.00;;;;5050420;28;20040;-80
2021/09/03 07:21:31;;;;;;;37.17;17.08;;;;;17.40;100284.00;;;;5050666;28;20033;-79
2021/09/03 07:23:59;;;;;;;30.00;16.50;;;;;17.40;100269.00;;;;5049886;28;20516;-78
2021/09/03 07:26:27;;;;;;;28.02;16.98;;;;;17.40;100273.00;;;;5048551;28;20037;-79
2021/09/03 07:28:54;;;;;;;37.97;20.38;;;;;17.40;100282.00;;;;5050387;28;20558;-80
2021/09/03 07:31:21;;;;;;;37.85;20.45;;;;;17.40;100278.00;;;;5049109;28;20029;-80
2021/09/03 07:33:47;;;;;;;42.80;20.67;;;;;17.40;100309.00;;;;5050217;28;20040;-80
2021/09/03 07:36:14;;;;;;;37.63;18.65;;;;;17.50;100286.00;;;;5049011;28;20419;-79
2021/09/03 07:38:41;;;;;;;41.25;19.33;;;;;17.50;100305.00;;;;5050101;28;20122;-81
2021/09/03 07:41:07;;;;;;;39.83;17.40;;;;;17.50;100311.00;;;;5049770;28;20037;-82
2021/09/03 07:43:34;;;;;;;35.63;16.50;;;;;17.50;100300.00;;;;5047988;28;20439;-81
2021/09/03 07:46:01;;;;;;;30.35;16.10;;;;;17.50;100299.00;;;;5048690;28;20163;-80
2021/09/03 07:48:27;;;;;;;28.38;15.85;;;;;17.50;100321.00;;;;5049789;28;20029;-81
2021/09/03 07:50:54;;;;;;;29.67;15.10;;;;;17.60;100295.00;;;;5049606;28;20132;-80
2021/09/03 07:53:20;;;;;;;27.20;14.68;;;;;17.60;100301.00;;;;5049604;28;20029;-80
2021/09/03 07:55:47;;;;;;;29.48;14.05;;;;;17.60;100306.00;;;;5049201;28;20040;-80
2021/09/03 07:58:14;;;;;;;26.20;13.48;;;;;17.60;100305.00;;;;5049040;28;20404;-79
2021/09/03 08:00:40;;;;;;;26.58;14.18;;;;;17.60;100324.00;;;;5054840;28;20028;-80
2021/09/03 08:03:07;;;;;;;21.70;13.63;;;;;17.70;100321.00;;;;5058934;28;20029;-81
2021/09/03 08:05:34;;;;;;;29.40;14.57;;;;;17.80;100303.00;;;;5056732;28;20040;-79
2021/09/03 08:08:03;;;;;;;26.50;14.73;;;;;17.90;100314.00;;;;5048216;28;20550;-80
2021/09/03 08:10:32;;;;;;;31.55;14.68;;;;;17.90;100300.00;;;;5049098;28;20025;-81
2021/09/03 08:13:02;;;;;;;22.10;13.40;;;;;17.90;100289.00;;;;5049737;28;20029;-80
2021/09/03 08:15:30;;;;;;;22.90;12.68;;;;;17.90;100335.00;;;;5048659;28;20523;-82
2021/09/03 08:17:57;;;;;;;23.85;13.00;;;;;18.10;100341.00;;;;5047596;28;20041;-79
2021/09/03 08:20:23;;;;;;;23.38;12.50;;;;;18.30;100343.00;;;;5048613;28;20049;-79
2021/09/03 08:22:51;;;;;;;28.45;14.48;;;;;18.30;100330.00;;;;5048174;28;20751;-79
2021/09/03 08:25:19;;;;;;;23.13;11.40;;;;;18.40;100320.00;;;;5049139;28;20143;-81
2021/09/03 08:27:47;;;;;;;22.05;11.00;;;;;18.50;100344.00;;;;5047989;28;20033;-81
2021/09/03 08:30:15;;;;;;;25.63;11.75;;;;;18.50;100346.00;;;;5049329;28;20032;-80
2021/09/03 08:32:42;;;;;;;21.48;12.82;;;;;18.40;100335.00;;;;5049382;28;20021;-79
2021/09/03 08:35:09;;;;;;;25.85;12.32;;;;;18.30;100345.00;;;;5050890;28;20382;-80
2021/09/03 08:37:36;;;;;;;18.88;9.75;;;;;18.40;100335.00;;;;5047296;28;20028;-81
2021/09/03 08:40:04;;;;;;;23.52;10.82;;;;;18.50;100352.00;;;;5048828;28;20021;-80
2021/09/03 08:42:31;;;;;;;28.67;10.80;;;;;18.40;100348.00;;;;5049323;28;20404;-79
2021/09/03 08:44:59;;;;;;;15.77;9.05;;;;;18.40;100346.00;;;;5049567;28;20029;-80
2021/09/03 08:47:26;;;;;;;15.05;9.23;;;;;18.50;100343.00;;;;5048524;28;20547;-79
2021/09/03 08:49:52;;;;;;;14.98;8.73;;;;;18.40;100365.00;;;;5048346;28;20028;-80
2021/09/03 08:52:19;;;;;;;16.80;7.63;;;;;18.50;100359.00;;;;5048969;28;20158;-79
2021/09/03 08:54:46;;;;;;;12.85;8.00;;;;;18.50;100374.00;;;;5046270;28;20140;-80
2021/09/03 08:57:14;;;;;;;12.60;8.05;;;;;18.50;100362.00;;;;5049912;28;20419;-77
2021/09/03 08:59:41;;;;;;;14.52;7.72;;;;;18.40;100381.00;;;;5048928;28;20021;-79
2021/09/03 09:02:13;;;;;;;18.95;9.10;;;;;18.30;100364.00;;;;5049227;28;20126;-80
2021/09/03 09:04:46;;;;;;;14.13;7.75;;;;;18.30;100369.00;;;;5048134;28;20060;-78
2021/09/03 09:07:13;;;;;;;16.88;7.43;;;;;18.30;100395.00;;;;5048648;28;20033;-80
2021/09/03 09:09:47;;;;;;;12.15;8.00;;;;;18.20;100394.00;;;;5048411;28;20037;-81
2021/09/03 09:12:18;;;;;;;12.63;7.72;;;;;18.20;100382.00;;;;5048936;28;20480;-79
2021/09/03 09:15:06;;;;;;;24.33;8.30;;;;;18.10;100396.00;;;;5048690;28;20021;-78
2021/09/03 09:17:37;;;;;;;14.27;7.68;;;;;18.10;100391.00;;;;5047755;28;20112;-79
2021/09/03 09:20:09;;;;;;;17.35;8.90;;;;;18.10;100407.00;;;;5048859;28;20029;-80
2021/09/03 09:23:14;;;;;;;21.85;8.52;;;;;18.30;100418.00;;;;5049044;28;20029;-78
2021/09/03 09:25:40;;;;;;;15.20;7.80;;;;;18.20;100397.00;;;;5005963;28;20071;-79
2021/09/03 09:28:18;;;;;;;13.52;7.70;;;;;18.20;100403.00;;;;5005625;28;20109;-80
2021/09/03 09:30:45;;;;;;;14.57;7.75;;;;;18.20;100393.00;;;;5029406;28;20445;-80
2021/09/03 09:33:18;;;;;;;14.82;7.55;;;;;18.10;100425.00;;;;5048053;28;20032;-78
2021/09/03 09:35:59;;;;;;;23.60;8.82;;;;;18.10;100415.00;;;;5048394;28;20526;-80
2021/09/03 09:38:28;;;;;;;27.25;8.90;;;;;18.00;100418.00;;;;5047843;28;20028;-78
2021/09/03 09:40:56;;;;;;;11.93;8.20;;;;;18.00;100433.00;;;;5046989;28;20067;-79
2021/09/03 09:43:30;;;;;;;13.25;7.78;;;;;17.90;100427.00;;;;5049734;28;20087;-80
2021/09/03 09:46:26;;;;;;;13.43;7.22;;;;;17.90;100441.00;;;;5048525;28;20112;-80
2021/09/03 09:48:56;;;;;;;22.98;8.48;;;;;17.90;100424.00;;;;5048181;28;20036;-79
2021/09/03 09:51:33;;;;;;;18.88;8.25;;;;;17.90;100446.00;;;;5047399;28;20028;-79
2021/09/03 09:54:04;;;;;;;16.70;10.00;;;;;17.90;100436.00;;;;5048022;28;20049;-78
2021/09/03 09:56:33;;;;;;;19.48;7.97;;;;;17.90;100413.00;;;;5047562;28;20039;-80
2021/09/03 09:59:02;;;;;;;15.73;7.75;;;;;17.90;100427.00;;;;5047852;28;20033;-80
2021/09/03 10:01:29;;;;;;;18.48;8.20;;;;;17.90;100441.00;;;;5048005;28;20032;-78
2021/09/03 10:03:56;;;;;;;15.27;10.05;;;;;17.80;100444.00;;;;5046755;28;20474;-78
2021/09/03 10:06:30;;;;;;;12.40;7.63;;;;;17.90;100434.00;;;;5047051;28;20672;-78
2021/09/03 10:08:58;;;;;;;22.92;7.97;;;;;17.90;100436.00;;;;5047406;28;20032;-79
2021/09/03 10:11:26;;;;;;;22.05;8.05;;;;;18.00;100475.00;;;;5046765;28;20108;-78
2021/09/03 10:13:54;;;;;;;18.55;7.30;;;;;18.10;100466.00;;;;5047532;28;20392;-77
2021/09/03 10:16:21;;;;;;;15.82;8.10;;;;;18.10;100473.00;;;;5046849;28;20492;-77
2021/09/03 10:18:50;;;;;;;15.10;7.82;;;;;18.30;100460.00;;;;5045090;28;20459;-76
2021/09/03 10:21:20;;;;;;;21.48;7.90;;;;;18.40;100463.00;;;;5045898;28;20060;-79
2021/09/03 10:24:08;;;;;;;13.70;7.77;;;;;18.50;100481.00;;;;5046626;28;20036;-79
2021/09/03 10:26:46;;;;;;;20.58;7.85;;;;;18.50;100471.00;;;;5046711;28;20029;-79
2021/09/03 10:29:23;;;;;;;15.10;9.00;;;;;18.60;100477.00;;;;5046469;28;20025;-78
2021/09/03 10:32:05;;;;;;;19.67;7.60;;;;;18.80;100506.00;;;;5046843;28;20017;-79
2021/09/03 10:37:19;;;;;;;15.40;7.80;;;;;19.00;100501.00;;;;5046208;28;20033;-78
2021/09/03 10:40:18;;;;;;;16.98;10.30;;;;;19.10;100513.00;;;;5046603;28;20029;-79
2021/09/03 10:42:48;;;;;;;18.65;7.60;;;;;19.20;100506.00;;;;5045401;28;20496;-79
2021/09/03 10:45:24;;;;;;;16.60;8.30;;;;;19.30;100504.00;;;;5046136;28;20026;-79
2021/09/03 10:47:59;;;;;;;16.63;8.23;;;;;19.30;100507.00;;;;5049501;28;20365;-81
2021/09/03 10:50:38;;;;;;;13.05;7.85;;;;;19.50;100503.00;;;;5050810;28;20144;-79
2021/09/03 10:55:55;;;;;;;23.15;8.68;;;;;19.70;100517.00;;;;5050694;28;20128;-79
2021/09/03 10:58:37;;;;;;;21.07;8.60;;;;;20.00;100515.00;;;;5050554;28;20484;-79
2021/09/03 11:01:13;;;;;;;15.40;8.73;;;;;20.10;100513.00;;;;5048725;28;20037;-80
2021/09/03 11:04:10;;;;;;;23.73;16.17;;;;;20.50;100514.00;;;;5050299;28;20037;-79
2021/09/03 11:06:56;;;;;;;17.55;10.02;;;;;20.60;100508.00;;;;5050343;28;20087;-79
2021/09/03 11:09:24;;;;;;;18.27;7.80;;;;;20.60;100523.00;;;;5049945;28;20067;-79
2021/09/03 11:12:10;;;;;;;11.93;6.85;;;;;20.90;100509.00;;;;5050252;28;20488;-79
2021/09/03 11:14:38;;;;;;;17.30;7.22;;;;;21.10;100515.00;;;;5050924;28;20155;-80
2021/09/03 11:17:11;;;;;;;16.25;6.20;;;;;21.00;100509.00;;;;5050276;28;20033;-79
2021/09/03 11:19:39;;;;;;;16.75;5.80;;;;;21.10;100564.00;;;;5050325;28;20029;-79
2021/09/03 11:22:10;;;;;;;9.43;5.18;;;;;21.80;100511.00;;;;5049986;28;20033;-79
2021/09/03 11:24:41;;;;;;;16.25;6.25;;;;;23.80;100533.00;;;;5050605;28;20040;-76
2021/09/03 11:27:11;;;;;;;10.18;5.75;;;;;26.40;100278.00;;;;5050065;28;20037;-79
2021/09/03 11:29:57;;;;;;;10.63;5.60;;;;;26.30;100330.00;;;;5050381;28;20094;-80
2021/09/03 11:32:32;;;;;;;10.80;4.95;;;;;27.10;100530.00;;;;5050641;28;20025;-80
2021/09/03 11:35:02;;;;;;;20.35;5.45;;;;;25.80;100336.00;;;;5049948;28;20075;-79
2021/09/03 11:37:50;;;;;;;9.38;4.95;;;;;25.80;100358.00;;;;5050079;28;20087;-80
2021/09/03 11:40:28;;;;;;;7.70;4.93;;;;;23.10;100538.00;;;;5049742;28;20094;-80
2021/09/03 11:42:57;;;;;;;14.52;5.18;;;;;22.60;100579.00;;;;5051232;28;20048;-79
2021/09/03 11:45:29;;;;;;;32.83;5.50;;;;;21.00;100359.00;;;;5049569;28;20763;-79
2021/09/03 11:48:08;;;;;;;8.32;5.50;;;;;21.00;100573.00;;;;5049436;28;20094;-84
2021/09/03 11:50:43;;;;;;;12.13;5.50;;;;;20.50;100615.00;;;;5049884;28;20036;-79
2021/09/03 11:53:15;;;;;;;16.23;6.63;;;;;20.10;100609.00;;;;5049703;28;20504;-82
2021/09/03 11:55:49;;;;;;;6.78;5.30;;;;;19.70;100624.00;;;;5049332;28;20028;-79
2021/09/03 11:58:18;;;;;;;7.65;5.50;;;;;19.70;100640.00;;;;5048822;28;20037;-79
2021/09/03 12:00:45;;;;;;;10.73;6.07;;;;;19.60;100639.00;;;;5049895;28;20033;-78
2021/09/03 12:03:15;;;;;;;11.85;6.53;;;;;19.80;100644.00;;;;5049396;28;20033;-79
2021/09/03 12:05:53;;;;;;;19.45;6.90;;;;;19.60;100646.00;;;;5050248;28;20056;-79